createdAt,value
2023-02-16T00:00:31.633Z,75.36
2023-02-16T00:04:17.622Z,75.42
2023-02-16T00:07:40.521Z,75.35
2023-02-16T00:11:21.685Z,75.23
2023-02-16T00:14:44.064Z,75.19
2023-02-16T00:18:14.823Z,75.22
2023-02-16T00:21:37.813Z,75.04
2023-02-16T00:25:02.096Z,74.91
2023-02-16T00:28:24.881Z,74.77
2023-02-16T00:31:47.840Z,74.80
2023-02-16T00:35:15.324Z,74.85
2023-02-16T00:38:38.784Z,74.76
2023-02-16T00:42:03.708Z,74.82
2023-02-16T00:45:26.093Z,74.78
2023-02-16T00:48:48.772Z,74.65
2023-02-16T00:52:23.414Z,74.70
2023-02-16T00:55:46.617Z,74.81
2023-02-16T00:59:13.582Z,74.90
2023-02-16T01:02:36.176Z,74.73
2023-02-16T01:06:12.904Z,74.87
2023-02-16T01:09:53.347Z,74.88
2023-02-16T01:13:17.198Z,74.75
2023-02-16T01:16:41.434Z,74.93
2023-02-16T01:20:04.186Z,75.18
2023-02-16T01:23:29.587Z,75.24
2023-02-16T01:26:52.312Z,75.26
2023-02-16T01:30:16.868Z,75.43
2023-02-16T01:33:39.999Z,75.41
2023-02-16T01:37:05.379Z,75.45
2023-02-16T01:40:36.450Z,75.47
2023-02-16T01:43:59.805Z,75.65
2023-02-16T01:47:30.843Z,75.66
2023-02-16T01:50:56.661Z,75.71
2023-02-16T01:54:24.601Z,75.52
2023-02-16T01:57:49.649Z,75.66
2023-02-16T02:01:32.465Z,75.71
2023-02-16T02:05:15.482Z,75.60
2023-02-16T02:08:42.609Z,75.35
2023-02-16T02:12:09.359Z,75.15
2023-02-16T02:15:34.641Z,75.22
2023-02-16T02:18:57.094Z,75.27
2023-02-16T02:22:57.633Z,75.20
2023-02-16T02:26:43.357Z,75.31
2023-02-16T02:30:13.075Z,75.13
2023-02-16T02:33:42.785Z,75.09
2023-02-16T02:37:11.343Z,75.23
2023-02-16T02:40:41.937Z,75.38
2023-02-16T02:44:06.810Z,75.19
2023-02-16T02:47:37.775Z,75.40
2023-02-16T02:51:19.475Z,75.52
2023-02-16T02:55:03.112Z,75.29
2023-02-16T02:58:45.095Z,75.22
2023-02-16T03:02:08.360Z,75.45
2023-02-16T03:05:32.172Z,75.47
2023-02-16T03:08:56.060Z,75.65
2023-02-16T03:12:37.660Z,75.64
2023-02-16T03:16:02.754Z,75.83
2023-02-16T03:19:43.611Z,75.75
2023-02-16T03:23:24.712Z,76.06
2023-02-16T03:27:09.158Z,76.03
2023-02-16T03:30:32.956Z,76.09
2023-02-16T03:33:55.848Z,75.97
2023-02-16T03:37:18.704Z,76.23
2023-02-16T03:40:42.514Z,76.05
2023-02-16T03:44:05.305Z,76.11
2023-02-16T03:47:27.305Z,76.26
2023-02-16T03:50:49.590Z,75.97
2023-02-16T03:54:12.030Z,75.92
2023-02-16T03:57:34.979Z,75.89
2023-02-16T04:00:58.889Z,75.91
2023-02-16T04:04:21.699Z,75.81
2023-02-16T04:07:44.516Z,75.78
2023-02-16T04:11:27.069Z,75.72
2023-02-16T04:14:49.629Z,75.67
2023-02-16T04:18:12.215Z,75.53
2023-02-16T04:21:34.939Z,75.52
2023-02-16T04:24:57.904Z,75.69
2023-02-16T04:28:20.381Z,75.46
2023-02-16T04:31:42.853Z,75.57
2023-02-16T04:35:06.457Z,75.75
2023-02-16T04:38:28.449Z,75.85
2023-02-16T04:41:50.670Z,75.62
2023-02-16T04:45:13.785Z,75.87
2023-02-16T04:48:36.299Z,75.88
2023-02-16T04:52:00.530Z,75.91
2023-02-16T04:55:23.131Z,76.06
2023-02-16T04:58:45.759Z,76.38
2023-02-16T05:02:08.892Z,76.32
2023-02-16T05:05:31.739Z,76.33
2023-02-16T05:08:54.613Z,76.48
2023-02-16T05:12:35.147Z,76.45
2023-02-16T05:15:57.869Z,76.63
2023-02-16T05:19:20.086Z,76.42
2023-02-16T05:22:44.051Z,76.51
2023-02-16T05:26:06.577Z,76.43
2023-02-16T05:29:30.353Z,76.36
2023-02-16T05:32:52.556Z,76.25
2023-02-16T05:36:15.273Z,76.15
2023-02-16T05:39:37.334Z,76.06
2023-02-16T05:42:59.546Z,76.11
2023-02-16T05:46:22.899Z,76.05
2023-02-16T05:49:45.400Z,75.61
2023-02-16T05:53:08.019Z,75.64
2023-02-16T05:56:30.619Z,75.60
2023-02-16T05:59:52.922Z,75.53
2023-02-16T06:03:14.934Z,75.47
2023-02-16T06:06:38.553Z,75.67
2023-02-16T06:10:01.610Z,75.65
2023-02-16T06:13:24.012Z,75.71
2023-02-16T06:16:48.762Z,75.65
2023-02-16T06:20:11.909Z,75.86
2023-02-16T06:23:34.041Z,75.87
2023-02-16T06:26:56.291Z,75.84
2023-02-16T06:30:19.648Z,75.93
2023-02-16T06:33:43.187Z,75.94
2023-02-16T06:37:05.777Z,76.14
2023-02-16T06:40:28.381Z,76.17
2023-02-16T06:43:50.434Z,76.18
2023-02-16T06:47:12.372Z,76.17
2023-02-16T06:50:34.418Z,76.31
2023-02-16T06:54:00.625Z,76.61
2023-02-16T06:57:23.018Z,76.39
2023-02-16T07:00:44.964Z,76.43
2023-02-16T07:04:07.121Z,76.51
2023-02-16T07:07:29.209Z,76.41
2023-02-16T07:10:53.194Z,76.40
2023-02-16T07:14:16.285Z,76.57
2023-02-16T07:17:38.642Z,76.24
2023-02-16T07:21:02.005Z,76.07
2023-02-16T07:24:24.605Z,75.90
2023-02-16T07:27:46.763Z,76.02
2023-02-16T07:31:10.439Z,76.06
2023-02-16T07:34:32.954Z,76.04
2023-02-16T07:37:55.508Z,75.86
2023-02-16T07:41:17.486Z,76.09
2023-02-16T07:44:39.745Z,76.08
2023-02-16T07:48:02.208Z,76.12
2023-02-16T07:51:25.518Z,76.23
2023-02-16T07:54:47.754Z,76.23
2023-02-16T07:58:09.960Z,76.27
2023-02-16T08:01:32.145Z,76.32
2023-02-16T08:04:54.694Z,76.44
2023-02-16T08:08:19.518Z,76.38
2023-02-16T08:11:42.881Z,76.56
2023-02-16T08:15:05.374Z,76.50
2023-02-16T08:18:28.403Z,76.85
2023-02-16T08:21:50.916Z,76.85
2023-02-16T08:25:15.445Z,76.88
2023-02-16T08:28:38.142Z,76.87
2023-02-16T08:32:01.349Z,77.03
2023-02-16T08:35:23.724Z,76.97
2023-02-16T08:38:50.594Z,76.97
2023-02-16T08:42:13.424Z,77.00
2023-02-16T08:45:35.936Z,77.21
2023-02-16T08:48:59.737Z,77.14
2023-02-16T08:52:21.895Z,77.00
2023-02-16T08:55:51.217Z,77.16
2023-02-16T08:59:14.566Z,77.26
2023-02-16T09:02:37.580Z,77.15
2023-02-16T09:06:02.731Z,77.05
2023-02-16T09:09:26.581Z,76.93
2023-02-16T09:12:49.549Z,76.97
2023-02-16T09:16:15.371Z,76.78
2023-02-16T09:19:38.097Z,76.73
2023-02-16T09:23:00.344Z,76.93
2023-02-16T09:26:24.061Z,76.75
2023-02-16T09:29:49.401Z,77.10
2023-02-16T09:33:12.513Z,77.09
2023-02-16T09:36:36.537Z,77.20
2023-02-16T09:39:58.579Z,76.90
2023-02-16T09:43:28.704Z,77.12
2023-02-16T09:46:52.143Z,77.26
2023-02-16T09:50:17.081Z,77.07
2023-02-16T09:53:40.961Z,77.41
2023-02-16T09:57:08.186Z,77.47
2023-02-16T10:00:39.803Z,77.89
2023-02-16T10:04:11.653Z,77.79
2023-02-16T10:07:40.660Z,77.52
2023-02-16T10:11:27.477Z,77.53
2023-02-16T10:14:51.621Z,77.43
2023-02-16T10:18:21.676Z,77.42
2023-02-16T10:21:46.316Z,77.36
2023-02-16T10:25:12.834Z,77.29
2023-02-16T10:28:40.909Z,77.38
2023-02-16T10:32:11.524Z,77.56
2023-02-16T10:35:42.383Z,77.20
2023-02-16T10:39:08.002Z,77.23
2023-02-16T10:42:34.393Z,77.31
2023-02-16T10:45:59.142Z,77.36
2023-02-16T10:49:21.630Z,77.17
2023-02-16T10:52:44.181Z,77.18
2023-02-16T10:56:21.499Z,77.39
2023-02-16T10:59:44.823Z,77.37
2023-02-16T11:03:10.993Z,77.13
2023-02-16T11:06:36.443Z,77.12
2023-02-16T11:10:01.162Z,77.15
2023-02-16T11:13:26.947Z,77.13
2023-02-16T11:16:49.549Z,77.32
2023-02-16T11:20:26.607Z,77.19
2023-02-16T11:23:58.098Z,76.97
2023-02-16T11:27:21.802Z,76.96
2023-02-16T11:30:44.779Z,76.86
2023-02-16T11:34:08.516Z,76.80
2023-02-16T11:37:32.926Z,76.74
2023-02-16T11:40:55.929Z,76.74
2023-02-16T11:44:24.520Z,76.57
2023-02-16T11:47:52.419Z,76.67
2023-02-16T11:51:28.515Z,76.92
2023-02-16T11:54:52.386Z,76.43
2023-02-16T11:58:16.881Z,76.28
2023-02-16T12:01:44.452Z,76.19
2023-02-16T12:05:21.322Z,76.21
2023-02-16T12:08:58.634Z,76.11
2023-02-16T12:12:31.669Z,76.01
2023-02-16T12:15:57.310Z,76.09
2023-02-16T12:19:24.678Z,75.30
2023-02-16T12:22:49.588Z,75.34
2023-02-16T12:26:31.083Z,75.11
2023-02-16T12:29:59.440Z,75.25
2023-02-16T12:33:33.388Z,75.01
2023-02-16T12:37:01.173Z,74.75
2023-02-16T12:40:30.638Z,74.45
2023-02-16T12:43:54.513Z,74.28
2023-02-16T12:47:22.549Z,74.22
2023-02-16T12:50:46.832Z,74.27
2023-02-16T12:54:13.839Z,74.04
2023-02-16T12:57:36.593Z,73.89
2023-02-16T13:01:01.944Z,73.96
2023-02-16T13:04:31.173Z,73.70
2023-02-16T13:07:56.335Z,73.08
2023-02-16T13:11:20.663Z,72.42
2023-02-16T13:14:44.123Z,72.47
2023-02-16T13:18:11.882Z,72.63
2023-02-16T13:21:51.803Z,72.74
2023-02-16T13:25:28.726Z,72.33
2023-02-16T13:29:03.566Z,72.38
2023-02-16T13:32:44.460Z,72.55
2023-02-16T13:36:15.487Z,72.31
2023-02-16T13:39:42.513Z,72.31
2023-02-16T13:43:12.833Z,71.97
2023-02-16T13:46:38.982Z,71.90
2023-02-16T13:50:03.027Z,71.88
2023-02-16T13:53:27.639Z,71.73
2023-02-16T13:56:51.142Z,71.78
2023-02-16T14:00:29.160Z,71.81
2023-02-16T14:03:51.774Z,71.79
2023-02-16T14:07:32.538Z,71.73
2023-02-16T14:11:09.210Z,71.62
2023-02-16T14:14:33.596Z,71.23
2023-02-16T14:17:56.094Z,71.16
2023-02-16T14:21:32.097Z,71.02
2023-02-16T14:24:56.246Z,70.85
2023-02-16T14:28:51.515Z,70.70
2023-02-16T14:32:23.884Z,70.61
2023-02-16T14:35:48.287Z,70.57
2023-02-16T14:39:12.404Z,70.46
2023-02-16T14:42:35.941Z,70.62
2023-02-16T14:46:16.646Z,70.52
2023-02-16T14:49:54.707Z,70.76
2023-02-16T14:53:35.275Z,70.70
2023-02-16T14:57:02.227Z,70.57
2023-02-16T15:00:29.140Z,70.45
2023-02-16T15:03:54.103Z,70.47
2023-02-16T15:07:17.912Z,70.55
2023-02-16T15:10:41.353Z,70.54
2023-02-16T15:14:08.558Z,70.67
2023-02-16T15:17:34.001Z,70.75
2023-02-16T15:20:57.892Z,70.57
2023-02-16T15:24:22.470Z,70.62
2023-02-16T15:27:53.370Z,70.34
2023-02-16T15:31:18.288Z,70.39
2023-02-16T15:34:41.076Z,70.25
2023-02-16T15:38:20.305Z,70.30
2023-02-16T15:41:45.238Z,70.27
2023-02-16T15:45:24.913Z,70.43
2023-02-16T15:48:49.671Z,70.63
2023-02-16T15:52:14.832Z,70.20
2023-02-16T15:55:45.025Z,70.21
2023-02-16T15:59:34.200Z,70.45
2023-02-16T16:02:58.449Z,70.13
2023-02-16T16:06:21.046Z,70.31
2023-02-16T16:09:45.372Z,70.19
2023-02-16T16:13:12.077Z,70.38
2023-02-16T16:16:35.865Z,70.59
2023-02-16T16:20:17.204Z,70.46
2023-02-16T16:23:42.241Z,70.56
2023-02-16T16:27:07.917Z,70.44
2023-02-16T16:30:31.717Z,70.34
2023-02-16T16:33:57.354Z,70.21
2023-02-16T16:37:24.598Z,70.36
2023-02-16T16:40:50.404Z,70.58
2023-02-16T16:44:29.044Z,70.57
2023-02-16T16:47:52.536Z,70.75
2023-02-16T16:51:15.740Z,70.88
2023-02-16T16:54:40.180Z,71.05
2023-02-16T16:58:05.904Z,70.95
2023-02-16T17:01:29.598Z,71.20
2023-02-16T17:04:52.266Z,71.27
2023-02-16T17:08:14.360Z,71.41
2023-02-16T17:11:37.917Z,71.53
2023-02-16T17:15:01.863Z,71.42
2023-02-16T17:18:24.441Z,71.64
2023-02-16T17:23:53.835Z,71.60
2023-02-16T17:27:23.511Z,71.62
2023-02-16T17:30:53.438Z,71.56
2023-02-16T17:34:22.127Z,71.47
2023-02-16T17:37:49.223Z,71.51
2023-02-16T17:41:23.301Z,71.60
2023-02-16T17:44:51.088Z,71.45
2023-02-16T17:48:21.217Z,71.52
2023-02-16T17:51:48.334Z,71.54
2023-02-16T17:55:17.800Z,71.71
2023-02-16T17:58:45.304Z,71.65
2023-02-16T18:02:14.689Z,71.71
2023-02-16T18:05:42.669Z,71.78
2023-02-16T18:09:11.584Z,71.82
2023-02-16T18:12:39.594Z,72.09
2023-02-16T18:16:08.768Z,71.97
2023-02-16T18:19:36.208Z,72.14
2023-02-16T18:23:03.133Z,72.22
2023-02-16T18:26:33.535Z,72.30
2023-02-16T18:30:00.778Z,72.39
2023-02-16T18:33:29.146Z,72.38
2023-02-16T18:36:56.273Z,72.09
2023-02-16T18:40:23.861Z,72.20
2023-02-16T18:43:51.726Z,72.16
2023-02-16T18:47:20.302Z,72.11
2023-02-16T18:50:48.879Z,72.15
2023-02-16T18:54:17.120Z,72.17
2023-02-16T18:57:44.479Z,72.36
2023-02-16T19:01:23.678Z,72.40
2023-02-16T19:04:50.461Z,72.28
2023-02-16T19:08:22.490Z,72.41
2023-02-16T19:11:50.859Z,72.33
2023-02-16T19:15:21.193Z,72.60
2023-02-16T19:18:48.486Z,72.59
2023-02-16T19:22:19.260Z,72.76
2023-02-16T19:25:47.621Z,72.74
2023-02-16T19:29:15.962Z,72.83
2023-02-16T19:32:49.776Z,72.78
2023-02-16T19:36:27.097Z,72.84
2023-02-16T19:39:57.427Z,72.70
2023-02-16T19:43:25.085Z,72.72
2023-02-16T19:46:54.364Z,72.68
2023-02-16T19:50:22.099Z,72.73
2023-02-16T19:53:51.723Z,72.52
2023-02-16T19:57:22.571Z,72.67
2023-02-16T20:00:50.426Z,72.56
2023-02-16T20:04:20.571Z,72.61
2023-02-16T20:07:47.816Z,72.82
2023-02-16T20:11:19.331Z,72.80
2023-02-16T20:14:50.081Z,72.83
2023-02-16T20:18:19.907Z,72.77
2023-02-16T20:22:00.429Z,72.97
2023-02-16T20:25:29.781Z,72.99
2023-02-16T20:28:59.718Z,72.98
2023-02-16T20:32:31.230Z,73.03
2023-02-16T20:35:58.533Z,73.18
2023-02-16T20:39:27.755Z,73.31
2023-02-16T20:42:54.560Z,73.15
2023-02-16T20:46:26.581Z,73.10
2023-02-16T20:50:00.466Z,73.06
2023-02-16T20:53:30.242Z,72.90
2023-02-16T20:56:59.928Z,72.74
2023-02-16T21:00:30.260Z,72.83
2023-02-16T21:03:59.584Z,72.99
2023-02-16T21:07:26.636Z,72.87
2023-02-16T21:10:54.457Z,72.82
2023-02-16T21:14:21.528Z,72.90
2023-02-16T21:17:49.491Z,72.88
2023-02-16T21:21:17.481Z,72.78
2023-02-16T21:24:44.528Z,72.98
2023-02-16T21:28:11.731Z,72.98
2023-02-16T21:31:39.576Z,73.20
2023-02-16T21:35:07.866Z,73.37
2023-02-16T21:38:35.824Z,73.42
2023-02-16T21:42:03.705Z,73.30
2023-02-16T21:45:32.845Z,73.39
2023-02-16T21:49:01.112Z,73.52
2023-02-16T21:52:29.313Z,73.51
2023-02-16T21:56:13.428Z,73.42
2023-02-16T21:59:42.034Z,73.58
2023-02-16T22:03:14.344Z,73.54
2023-02-16T22:06:46.398Z,73.52
2023-02-16T22:10:13.758Z,73.44
2023-02-16T22:13:48.341Z,73.49
2023-02-16T22:17:16.662Z,73.50
2023-02-16T22:20:44.310Z,73.48
2023-02-16T22:24:15.114Z,73.55
2023-02-16T22:27:42.786Z,73.62
2023-02-16T22:31:10.732Z,73.86
2023-02-16T22:34:37.862Z,74.03
2023-02-16T22:38:05.428Z,74.07
2023-02-16T22:41:32.414Z,74.08
2023-02-16T22:45:01.077Z,74.13
2023-02-16T22:48:28.298Z,74.18
2023-02-16T22:51:55.655Z,74.29
2023-02-16T22:55:22.675Z,74.26
2023-02-16T22:58:49.891Z,74.28
2023-02-16T23:02:16.673Z,74.14
2023-02-16T23:05:43.601Z,74.00
2023-02-16T23:09:16.055Z,73.96
2023-02-16T23:12:42.674Z,74.04
2023-02-16T23:16:13.475Z,74.09
2023-02-16T23:19:40.645Z,73.96
2023-02-16T23:23:07.703Z,74.00
2023-02-16T23:26:35.461Z,74.04
2023-02-16T23:30:02.652Z,74.00
2023-02-16T23:33:30.459Z,74.18
2023-02-16T23:37:00.429Z,74.14
2023-02-16T23:40:27.831Z,74.12
2023-02-16T23:43:55.753Z,74.31
2023-02-16T23:47:22.890Z,74.13
2023-02-16T23:50:54.458Z,74.22
2023-02-16T23:54:21.193Z,74.29
2023-02-16T23:57:48.807Z,74.54
